Etusivu
METAR-TAF:

METAR-TAF

Lentoasemat :

El Goléa, Algeria

Leveyspiiri: 30-34N, Pituuspiiri: 002-52E, korkeus merenpinnasta: 397 m

Tämänhetkinen sää

Tämä raportti tehtiin 45 minuuttia sitten, kello 12.00 UTC
Tuuli 15 kn etelästä
Lämpötila 43°C
Kosteus 9%
Ilmanpaine 1010 hPa
Näkyvyys: 5000 m
Muutamia pilviä 4000 ft:n korkeudessa

METAR: DAUE 141200Z 19015KT 5000 FEW040 43/03 Q1010

Aika: 13:45 (12:45 UTC)


TAF: puuttuu

Säähavainnot ja -ennusteet yli 4000 lentoasemalta (METAR- ja TAF-raportit).

Käytössä olevat sääasemat on merkitty karttaan keltaisilla ja punaisilla pisteillä.

Aseta hiiri pisteen päälle nähdäksesi sääaseman nimen.

Klikkaa sitten nähdäksesi säähavainnot ja -ennusteet.

Kartan vaihtaminen: klikkaa mustalla rastilla varustettuja vihreitä pisteitä, niin voit zoomata sisään; viivalla varustettua vihreää pistettä, niin voit zoomata ulos tai vihreitä nuolia, niin pääset viereisille kartoille.


METAR-TAF: